• Join FlightAware (Why Join?)
  • Login
  • US Flag 
Rudolph Flight #1: Arrived! 
06:21PM EST


 

Airport Tracker/Info


-or-


 

Live Flight TrackerFlight Track Log ✈ N818GM ✈ 25-Aug-2013 ✈ KAPF - KTLH

Flight Track Log - Related Links

Times and Time Zones

All times are in EDT time to prevent confusion due to time zone crossing. See the N818GM flight status page for this flight to view local times or setup timezone preferences in your user account.

Time Position Orientation Groundspeed Altitude Reporting Facility
EDT Latitude Longitude Course Direction KTS MPH feet Rate Location/Type
07:54AM 26.4254 -81.8000 North  Level FlightAware Approximate
07:55AM 26.4716 -81.8005 355° North  Level FlightAware Approximate
07:56AM 26.5176 -81.8053 355° North  Level FlightAware Approximate
07:57AM 26.5637 -81.8102 355° North  Level FlightAware Approximate
07:58AM 26.6097 -81.8150 355° North  Level FlightAware Approximate
07:59AM 26.6557 -81.8198 355° North  Level FlightAware Approximate
08:00AM 26.7018 -81.8247 355° North  Level FlightAware Approximate
08:01AM 26.7478 -81.8295 355° North  Level FlightAware Approximate
08:02AM 26.7939 -81.8344 355° North  Level FlightAware Approximate
08:02AM 26.7892 -81.8339 355° North 184 212 8,000  Level Miami Center
08:03AM 26.8399 -81.8392 355° North  Level FlightAware Approximate
08:03AM 26.8328 -81.8403 353° North 178 205 8,000  Level Miami Center
08:04AM 26.8859 -81.8440 355° North  Level FlightAware Approximate
08:04AM 26.8844 -81.8494 351° North 173 199 8,000  Level Miami Center
08:05AM 26.9320 -81.8489 355° North  Level FlightAware Approximate
08:05AM 26.9344 -81.8564 353° North 178 205 8,000  Level Miami Center
08:06AM 26.9780 -81.8538 355° North  Level FlightAware Approximate
08:06AM 26.9822 -81.8653 351° North 178 205 8,000  Level Miami Center
08:07AM 27.0241 -81.8586 355° North  Level FlightAware Approximate
08:07AM 27.0258 -81.8719 352° North 178 205 8,000  Level Miami Center
08:08AM 27.0701 -81.8635 355° North  Level FlightAware Approximate
08:08AM 27.0756 -81.8786 353° North 178 205 8,000  Level Miami Center
08:09AM 27.1256 -81.8856 353° North 178 205 8,000  Level Miami Center
08:10AM 27.1731 -81.8944 351° North 178 205 8,000  Level Miami Center
08:11AM 27.2231 -81.8992 355° North 178 205 8,000  Level Miami Center
08:12AM 27.2728 -81.9083 351° North 178 205 8,000  Level Miami Center
08:13AM 27.3206 -81.9172 351° North 178 205 8,000  Level Miami Center
08:14AM 27.3683 -81.9242 353° North 178 205 8,000  Level Miami Center
08:15AM 27.4181 -81.9311 353° North 178 205 8,000  Level Miami Center
08:16AM 27.4658 -81.9403 350° North 178 205 8,000  Level Miami Center
08:17AM 27.5136 -81.9469 353° North 178 205 8,000  Level Miami Center
08:18AM 27.5614 -81.9492 358° North 178 205 8,000  Level Miami Center
08:19AM 27.6114 -81.9583 351° North 178 205 8,000  Level Miami Center
08:20AM 27.6653 -81.9653 353° North 178 205 8,000  Level Miami Center
08:21AM 27.7131 -81.9744 350° North 178 205 8,000  Level Miami Center
08:22AM 27.7606 -81.9814 353° North 178 205 8,000  Level Miami Center
08:23AM 27.8083 -81.9931 348° North 179 206 8,000  Level Miami Center
08:24AM 27.8539 -81.9997 353° North 179 206 8,100  Climbing Miami Center
08:25AM 27.9039 -82.0067 353° North 179 206 8,000  Descending Miami Center
08:26AM 27.9494 -82.0158 350° North 179 206 8,100  Climbing Miami Center
08:27AM 27.9950 -82.0247 350° North 173 199 8,000 -60 Descending Miami Center
08:28AM 28.0358 -82.0503 331° Northwest 168 193 8,000  Level Miami Center
08:29AM 28.0764 -82.0781 329° Northwest 168 193 8,100  Climbing Miami Center
08:31AM 28.1333 -82.1167 329° Northwest 171 197 8,000  Descending Tampa TRACON
08:32AM 28.1667 -82.1333 336° Northwest 170 196 8,100  Climbing Tampa TRACON
08:33AM 28.2167 -82.1667 330° Northwest 171 197 8,100 -60 Level Tampa TRACON
08:34AM 28.2500 -82.1833 336° Northwest 172 198 8,000 -60 Descending Tampa TRACON
08:35AM 28.3000 -82.2167 330° Northwest 171 197 8,000  Level Tampa TRACON
08:36AM 28.3333 -82.2333 336° Northwest 173 199 8,000  Level Tampa TRACON
08:37AM 28.3833 -82.2667 330° Northwest 170 196 8,100  Climbing Tampa TRACON
08:38AM 28.4167 -82.3000 319° Northwest 171 197 8,100  Level Tampa TRACON
08:39AM 28.4667 -82.3167 344° North 169 194 8,100  Level Tampa TRACON
08:40AM 28.5000 -82.3500 319° Northwest 169 194 8,100  Level Tampa TRACON
08:41AM 28.5433 -82.3750 333° Northwest 168 193 8,100  Level Jacksonville Center
08:42AM 28.5936 -82.4031 334° Northwest 166 191 8,100  Level Jacksonville Center
08:43AM 28.6333 -82.4289 330° Northwest 167 192 8,100  Level Jacksonville Center
08:44AM 28.6750 -82.4547 331° Northwest 168 193 8,100  Level Jacksonville Center
08:45AM 28.7128 -82.4806 329° Northwest 167 192 8,100  Level Jacksonville Center
08:46AM 28.7503 -82.5089 326° Northwest 170 196 8,100 -60 Level Jacksonville Center
08:47AM 28.7861 -82.5492 315° West 173 199 8,000 -60 Descending Jacksonville Center
08:48AM 28.8217 -82.5844 319° Northwest 167 192 8,000  Level Jacksonville Center
08:49AM 28.8531 -82.6222 313° West 166 191 8,000  Level Jacksonville Center
08:50AM 28.8886 -82.6625 315° West 170 196 8,100  Climbing Jacksonville Center
08:51AM 28.9344 -82.7075 319° Northwest 167 192 8,100  Level Jacksonville Center
08:52AM 28.9575 -82.7336 315° West 169 194 8,100  Level Jacksonville Center
08:53AM 28.9908 -82.7739 313° West 170 196 8,100  Level Jacksonville Center
08:54AM 29.0328 -82.8167 318° Northwest 176 203 8,100 -60 Level Jacksonville Center
08:55AM 29.0661 -82.8544 315° West 176 203 8,000 -60 Descending Jacksonville Center
08:56AM 29.1017 -82.8925 317° Northwest 171 197 8,000  Level Jacksonville Center
08:57AM 29.1350 -82.9306 315° West 171 197 8,000  Level Jacksonville Center
08:58AM 29.1706 -82.9686 317° Northwest 171 197 8,000  Level Jacksonville Center
08:59AM 29.2017 -83.0044 315° West 171 197 8,000  Level Jacksonville Center
09:00AM 29.2372 -83.0425 317° Northwest 171 197 8,100  Climbing Jacksonville Center
09:01AM 29.2706 -83.0831 313° West 171 197 8,100  Level Jacksonville Center
09:02AM 29.3058 -83.1211 317° Northwest 171 197 8,100  Level Jacksonville Center
09:03AM 29.3392 -83.1617 313° West 171 197 8,100  Level Jacksonville Center
09:04AM 29.3747 -83.2000 317° Northwest 171 197 8,100  Level Jacksonville Center
09:05AM 29.4100 -83.2383 317° Northwest 171 197 8,100  Level Jacksonville Center
09:06AM 29.4456 -83.2764 317° Northwest 171 197 8,100  Level Jacksonville Center
09:07AM 29.4786 -83.3172 313° West 171 197 8,100  Level Jacksonville Center
09:08AM 29.5161 -83.3556 318° Northwest 171 197 8,100  Level Jacksonville Center
09:09AM 29.5494 -83.3939 315° West 171 197 8,100  Level Jacksonville Center
09:10AM 29.5847 -83.4347 315° West 171 197 8,100  Level Jacksonville Center
09:11AM 29.6200 -83.4756 315° West 171 197 8,100  Level Jacksonville Center
09:12AM 29.6575 -83.5139 318° Northwest 171 197 8,100  Level Jacksonville Center
09:13AM 29.6928 -83.5547 315° West 171 197 8,100  Level Jacksonville Center
09:14AM 29.7281 -83.5933 316° Northwest 171 197 8,100  Level Jacksonville Center
09:15AM 29.7592 -83.6294 315° West 171 197 8,100 -300 Level Jacksonville Center
09:16AM 29.7964 -83.6681 318° Northwest 171 197 7,600 -480 Descending Jacksonville Center
09:17AM 29.8297 -83.7186 307° West 178 205 7,200 -480 Descending Jacksonville Center
09:18AM 29.8628 -83.7667 308° West 190 219 6,700 -540 Descending Jacksonville Center
09:19AM 29.8978 -83.8103 313° West 190 219 6,200 -480 Descending Jacksonville Center
09:20AM 29.9247 -83.8561 304° West 185 213 5,800 -480 Descending Jacksonville Center
09:21AM 29.9450 -83.9089 294° West 179 206 5,300 -540 Descending Jacksonville Center
09:22AM 29.9656 -83.9642 293° West 179 206 4,800 -600 Descending Jacksonville Center
09:23AM 29.9881 -84.0150 297° West 179 206 4,200 -600 Descending Jacksonville Center
09:25AM 30.0445 -84.0395 339° North  Level FlightAware Approximate
09:32AM 30.2994 -84.2645 313° West  Level Estimated
09:33AM 30.3358 -84.2967 311° West  Level Estimated
09:34AM 30.3687 -84.3336 316° Northwest  Level FlightAware Approximate
09:35AM 30.3833 -84.3500 311° West  Level FlightAware Approximate
09:36AM 30.3967 -84.3509 311° West  Level Estimated
09:37AM 30.3967 -84.3509 311° West  Level Estimated
09:38AM 30.3967 -84.3509 311° West  Level Estimated
09:39AM 30.3967 -84.3509 311° West  Level Estimated
09:40AM 30.3967 -84.3509 311° West  Level Estimated
09:41AM 30.3967 -84.3509 311° West  Level Estimated
09:42AM 30.3967 -84.3509 311° West  Level Estimated
09:43AM 30.3967 -84.3509 311° West  Level Estimated
09:44AM 30.3967 -84.3509 311° West  Level Estimated
09:45AM 30.3967 -84.3509 311° West  Level Estimated
09:46AM 30.3967 -84.3509 311° West  Level Estimated